createdAt,value
2023-02-26T00:00:01.617Z,1.63
2023-02-26T00:02:28.093Z,1.50
2023-02-26T00:04:54.502Z,1.53
2023-02-26T00:07:21.084Z,1.40
2023-02-26T00:09:47.467Z,1.30
2023-02-26T00:12:13.865Z,1.30
2023-02-26T00:14:40.850Z,1.80
2023-02-26T00:17:20.169Z,1.20
2023-02-26T00:19:46.768Z,1.40
2023-02-26T00:22:13.396Z,1.20
2023-02-26T00:24:39.825Z,1.30
2023-02-26T00:27:06.353Z,1.40
2023-02-26T00:29:33.253Z,1.80
2023-02-26T00:31:59.907Z,1.50
2023-02-26T00:34:26.742Z,1.33
2023-02-26T00:37:09.403Z,1.50
2023-02-26T00:39:48.239Z,1.40
2023-02-26T00:42:15.298Z,1.40
2023-02-26T00:44:41.950Z,1.73
2023-02-26T00:47:30.781Z,2.20
2023-02-26T00:50:16.750Z,2.27
2023-02-26T00:52:49.131Z,2.50
2023-02-26T00:55:15.796Z,2.03
2023-02-26T00:57:42.526Z,2.03
2023-02-26T01:00:09.849Z,2.00
2023-02-26T01:02:37.623Z,3.07
2023-02-26T01:05:04.597Z,2.03
2023-02-26T01:07:37.616Z,1.23
2023-02-26T01:10:04.691Z,1.60
2023-02-26T01:12:31.259Z,1.90
2023-02-26T01:14:57.825Z,1.80
2023-02-26T01:17:39.814Z,2.17
2023-02-26T01:20:27.323Z,1.60
2023-02-26T01:23:03.637Z,2.17
2023-02-26T01:25:43.056Z,1.73
2023-02-26T01:28:09.921Z,2.00
2023-02-26T01:30:36.783Z,1.77
2023-02-26T01:33:25.075Z,1.73
2023-02-26T01:36:24.293Z,1.97
2023-02-26T01:39:01.358Z,1.97
2023-02-26T01:41:31.887Z,1.67
2023-02-26T01:44:27.124Z,1.87
2023-02-26T01:47:04.935Z,1.87
2023-02-26T01:49:32.321Z,2.10
2023-02-26T01:52:00.976Z,2.00
2023-02-26T01:54:38.293Z,1.93
2023-02-26T01:57:15.306Z,2.43
2023-02-26T01:59:46.932Z,1.83
2023-02-26T02:02:17.031Z,2.00
2023-02-26T02:04:44.213Z,2.10
2023-02-26T02:07:10.778Z,1.40
2023-02-26T02:09:37.360Z,1.93
2023-02-26T02:12:15.813Z,1.90
2023-02-26T02:15:07.189Z,1.33
2023-02-26T02:17:58.213Z,1.80
2023-02-26T02:20:43.204Z,1.93
2023-02-26T02:23:21.695Z,1.90
2023-02-26T02:26:16.133Z,2.10
2023-02-26T02:29:09.338Z,2.10
2023-02-26T02:32:09.804Z,1.80
2023-02-26T02:34:53.210Z,2.10
2023-02-26T02:37:28.062Z,2.00
2023-02-26T02:40:01.813Z,2.13
2023-02-26T02:42:49.974Z,1.67
2023-02-26T02:45:20.433Z,1.40
2023-02-26T02:47:50.513Z,1.23
2023-02-26T02:50:26.371Z,1.90
2023-02-26T02:52:57.955Z,1.53
2023-02-26T02:55:30.878Z,2.13
2023-02-26T02:58:29.057Z,1.80
2023-02-26T03:00:58.853Z,1.57
2023-02-26T03:03:35.745Z,1.87
2023-02-26T03:06:02.567Z,2.17
2023-02-26T03:08:33.342Z,1.73
2023-02-26T03:10:59.993Z,2.17
2023-02-26T03:13:27.150Z,2.17
2023-02-26T03:16:31.200Z,1.37
2023-02-26T03:19:16.362Z,1.80
2023-02-26T03:21:50.515Z,1.87
2023-02-26T03:24:29.374Z,1.90
2023-02-26T03:27:10.501Z,1.80
2023-02-26T03:29:56.196Z,2.20
2023-02-26T03:32:28.576Z,1.60
2023-02-26T03:35:19.114Z,1.70
2023-02-26T03:37:50.925Z,2.03
2023-02-26T03:40:26.348Z,1.60
2023-02-26T03:42:57.051Z,1.20
2023-02-26T03:45:34.651Z,1.20
2023-02-26T03:48:03.493Z,1.40
2023-02-26T03:50:33.310Z,1.40
2023-02-26T03:53:02.353Z,1.40
2023-02-26T03:55:33.256Z,1.43
2023-02-26T03:57:59.786Z,1.50
2023-02-26T04:00:27.749Z,1.43
2023-02-26T04:03:13.621Z,1.80
2023-02-26T04:05:42.462Z,1.90
2023-02-26T04:08:09.061Z,1.73
2023-02-26T04:10:40.273Z,1.70
2023-02-26T04:13:07.473Z,1.97
2023-02-26T04:15:33.939Z,1.70
2023-02-26T04:18:00.460Z,1.63
2023-02-26T04:20:26.885Z,1.37
2023-02-26T04:22:53.648Z,2.03
2023-02-26T04:25:20.055Z,1.50
2023-02-26T04:27:46.423Z,1.83
2023-02-26T04:30:13.031Z,1.43
2023-02-26T04:32:39.636Z,1.80
2023-02-26T04:35:06.132Z,1.90
2023-02-26T04:37:32.509Z,1.70
2023-02-26T04:39:58.896Z,1.80
2023-02-26T04:42:25.311Z,1.80
2023-02-26T04:44:51.788Z,1.50
2023-02-26T04:47:18.186Z,1.60
2023-02-26T04:49:44.533Z,1.50
2023-02-26T04:52:11.106Z,1.50
2023-02-26T04:54:37.994Z,1.53
2023-02-26T04:57:04.493Z,1.27
2023-02-26T04:59:30.949Z,1.30
2023-02-26T05:01:57.480Z,1.50
2023-02-26T05:04:24.157Z,1.20
2023-02-26T05:06:50.947Z,1.30
2023-02-26T05:09:17.653Z,1.27
2023-02-26T05:11:44.061Z,1.63
2023-02-26T05:14:10.470Z,1.30
2023-02-26T05:16:37.116Z,1.13
2023-02-26T05:19:03.506Z,1.13
2023-02-26T05:21:30.131Z,0.93
2023-02-26T05:23:56.697Z,1.07
2023-02-26T05:26:23.460Z,1.37
2023-02-26T05:28:50.046Z,1.20
2023-02-26T05:31:16.543Z,1.27
2023-02-26T05:33:43.251Z,1.43
2023-02-26T05:36:09.980Z,1.77
2023-02-26T05:38:36.672Z,2.03
2023-02-26T05:41:03.585Z,2.40
2023-02-26T05:43:30.628Z,1.60
2023-02-26T05:45:57.139Z,1.60
2023-02-26T05:48:23.801Z,1.53
2023-02-26T05:50:50.581Z,1.47
2023-02-26T05:53:17.333Z,1.80
2023-02-26T05:55:43.789Z,1.30
2023-02-26T05:58:10.538Z,1.40
2023-02-26T06:00:37.475Z,1.20
2023-02-26T06:03:03.904Z,2.03
2023-02-26T06:05:30.311Z,1.37
2023-02-26T06:07:56.703Z,1.27
2023-02-26T06:10:23.080Z,1.33
2023-02-26T06:12:49.451Z,1.53
2023-02-26T06:15:15.864Z,1.27
2023-02-26T06:17:42.259Z,1.70
2023-02-26T06:20:09.531Z,1.97
2023-02-26T06:22:36.222Z,1.77
2023-02-26T06:25:02.766Z,2.23
2023-02-26T06:27:29.204Z,2.13
2023-02-26T06:29:55.628Z,1.80
2023-02-26T06:32:22.318Z,1.90
2023-02-26T06:34:48.799Z,1.80
2023-02-26T06:37:15.349Z,2.63
2023-02-26T06:39:41.920Z,1.87
2023-02-26T06:42:08.634Z,2.00
2023-02-26T06:44:35.037Z,1.40
2023-02-26T06:47:01.524Z,1.30
2023-02-26T06:49:27.908Z,2.10
2023-02-26T06:51:54.285Z,2.13
2023-02-26T06:54:20.706Z,2.00
2023-02-26T06:56:47.388Z,1.90
2023-02-26T06:59:15.261Z,1.57
2023-02-26T07:01:41.683Z,1.90
2023-02-26T07:04:08.179Z,1.50
2023-02-26T07:06:34.779Z,1.63
2023-02-26T07:09:01.235Z,2.00
2023-02-26T07:11:27.696Z,2.10
2023-02-26T07:13:55.631Z,2.13
2023-02-26T07:16:22.647Z,2.17
2023-02-26T07:18:49.112Z,2.13
2023-02-26T07:21:15.524Z,1.60
2023-02-26T07:23:41.910Z,2.27
2023-02-26T07:26:08.927Z,1.40
2023-02-26T07:28:35.642Z,2.40
2023-02-26T07:31:02.226Z,1.80
2023-02-26T07:33:28.922Z,1.90
2023-02-26T07:35:55.353Z,2.27
2023-02-26T07:38:22.500Z,2.13
2023-02-26T07:40:49.154Z,2.27
2023-02-26T07:43:15.661Z,2.30
2023-02-26T07:45:42.057Z,1.90
2023-02-26T07:48:08.772Z,2.20
2023-02-26T07:50:35.364Z,2.63
2023-02-26T07:53:01.770Z,2.37
2023-02-26T07:55:28.465Z,2.20
2023-02-26T07:57:54.879Z,2.60
2023-02-26T08:00:21.722Z,1.80
2023-02-26T08:02:48.282Z,2.13
2023-02-26T08:05:14.692Z,2.80
2023-02-26T08:07:41.137Z,2.83
2023-02-26T08:10:08.098Z,2.43
2023-02-26T08:12:34.625Z,1.70
2023-02-26T08:15:01.004Z,2.23
2023-02-26T08:17:27.737Z,3.17
2023-02-26T08:19:54.285Z,2.50
2023-02-26T08:22:21.197Z,2.73
2023-02-26T08:24:47.591Z,3.10
2023-02-26T08:27:13.998Z,3.30
2023-02-26T08:29:40.417Z,3.40
2023-02-26T08:32:06.947Z,3.93
2023-02-26T08:34:33.495Z,4.10
2023-02-26T08:37:02.286Z,3.77
2023-02-26T08:39:28.854Z,3.73
2023-02-26T08:41:55.626Z,3.43
2023-02-26T08:44:22.371Z,3.13
2023-02-26T08:46:49.545Z,3.13
2023-02-26T08:49:16.001Z,3.10
2023-02-26T08:51:42.433Z,2.90
2023-02-26T08:54:09.758Z,2.60
2023-02-26T08:56:36.188Z,1.87
2023-02-26T08:59:02.635Z,1.50
2023-02-26T09:01:29.407Z,1.33
2023-02-26T09:03:56.097Z,1.13
2023-02-26T09:06:22.481Z,1.20
2023-02-26T09:08:49.380Z,1.50
2023-02-26T09:11:15.771Z,1.20
2023-02-26T09:13:42.771Z,1.00
2023-02-26T09:16:09.225Z,1.20
2023-02-26T09:18:35.799Z,1.20
2023-02-26T09:21:03.070Z,1.37
2023-02-26T09:23:29.629Z,1.13
2023-02-26T09:25:57.456Z,1.43
2023-02-26T09:28:26.578Z,1.60
2023-02-26T09:30:54.795Z,2.50
2023-02-26T09:33:21.951Z,1.20
2023-02-26T09:35:49.815Z,1.43
2023-02-26T09:38:16.792Z,0.87
2023-02-26T09:41:07.192Z,1.10
2023-02-26T09:43:52.703Z,1.23
2023-02-26T09:46:28.825Z,1.40
2023-02-26T09:49:17.963Z,1.20
2023-02-26T09:51:47.658Z,1.30
2023-02-26T09:54:34.326Z,1.10
2023-02-26T09:57:01.188Z,1.47
2023-02-26T09:59:31.916Z,1.10
2023-02-26T10:02:24.200Z,1.00
2023-02-26T10:05:21.601Z,1.00
2023-02-26T10:07:58.249Z,1.20
2023-02-26T10:10:49.989Z,0.97
2023-02-26T10:13:24.089Z,0.90
2023-02-26T10:15:50.649Z,1.23
2023-02-26T10:18:22.206Z,0.97
2023-02-26T10:20:58.784Z,0.90
2023-02-26T10:23:32.364Z,1.27
2023-02-26T10:26:04.638Z,0.80
2023-02-26T10:28:57.345Z,0.67
2023-02-26T10:31:29.715Z,0.73
2023-02-26T10:34:17.442Z,0.80
2023-02-26T10:36:52.218Z,0.90
2023-02-26T10:39:29.224Z,0.90
2023-02-26T10:41:59.188Z,1.00
2023-02-26T10:44:33.531Z,0.77
2023-02-26T10:47:16.186Z,0.87
2023-02-26T10:49:52.597Z,0.90
2023-02-26T10:52:27.535Z,1.03
2023-02-26T10:55:03.899Z,1.10
2023-02-26T10:57:35.345Z,0.97
2023-02-26T11:00:02.951Z,0.87
2023-02-26T11:02:38.450Z,0.80
2023-02-26T11:05:08.199Z,0.80
2023-02-26T11:07:37.218Z,0.90
2023-02-26T11:10:04.149Z,1.00
2023-02-26T11:12:32.304Z,0.67
2023-02-26T11:15:00.977Z,1.07
2023-02-26T11:17:31.366Z,1.10
2023-02-26T11:20:05.466Z,1.00
2023-02-26T11:22:36.077Z,1.33
2023-02-26T11:25:03.542Z,0.80
2023-02-26T11:27:36.626Z,1.03
2023-02-26T11:30:25.998Z,0.83
2023-02-26T11:32:54.412Z,0.80
2023-02-26T11:35:24.113Z,0.80
2023-02-26T11:37:56.223Z,0.90
2023-02-26T11:40:25.341Z,1.00
2023-02-26T11:43:08.754Z,1.27
2023-02-26T11:45:38.002Z,1.10
2023-02-26T11:48:07.117Z,1.37
2023-02-26T11:50:44.901Z,0.70
2023-02-26T11:53:38.300Z,1.10
2023-02-26T11:56:11.499Z,1.07
2023-02-26T11:58:39.966Z,1.20
2023-02-26T12:01:08.015Z,1.20
2023-02-26T12:03:40.980Z,1.30
2023-02-26T12:06:21.615Z,0.77
2023-02-26T12:08:48.175Z,1.10
2023-02-26T12:11:39.744Z,0.87
2023-02-26T12:14:27.987Z,1.20
2023-02-26T12:17:14.810Z,1.37
2023-02-26T12:20:20.596Z,0.70
2023-02-26T12:22:54.830Z,1.07
2023-02-26T12:25:42.735Z,1.13
2023-02-26T12:28:29.848Z,0.70
2023-02-26T12:31:06.573Z,0.93
2023-02-26T12:34:01.025Z,0.80
2023-02-26T12:36:46.478Z,0.80
2023-02-26T12:39:39.085Z,0.80
2023-02-26T12:42:18.598Z,1.30
2023-02-26T12:44:45.034Z,1.03
2023-02-26T12:47:17.515Z,1.00
2023-02-26T12:49:47.049Z,0.93
2023-02-26T12:52:30.617Z,0.90
2023-02-26T12:55:14.748Z,1.10
2023-02-26T12:57:50.687Z,0.80
2023-02-26T13:00:23.402Z,1.13
2023-02-26T13:03:12.792Z,1.10
2023-02-26T13:05:42.241Z,1.00
2023-02-26T13:08:26.873Z,1.13
2023-02-26T13:11:32.507Z,0.97
2023-02-26T13:14:21.740Z,0.80
2023-02-26T13:17:01.572Z,0.87
2023-02-26T13:19:52.657Z,0.90
2023-02-26T13:22:27.583Z,1.00
2023-02-26T13:25:04.395Z,1.00
2023-02-26T13:27:34.492Z,1.00
2023-02-26T13:30:07.511Z,1.00
2023-02-26T13:32:36.026Z,1.23
2023-02-26T13:35:35.266Z,1.20
2023-02-26T13:38:03.280Z,0.90
2023-02-26T13:40:36.341Z,1.50
2023-02-26T13:43:15.518Z,1.00
2023-02-26T13:45:56.061Z,0.87
2023-02-26T13:48:53.684Z,1.00
2023-02-26T13:51:31.536Z,0.87
2023-02-26T13:54:00.282Z,1.20
2023-02-26T13:56:36.013Z,0.87
2023-02-26T13:59:14.268Z,0.90
2023-02-26T14:01:50.238Z,1.10
2023-02-26T14:04:24.977Z,0.93
2023-02-26T14:06:56.176Z,0.83
2023-02-26T14:09:22.625Z,1.03
2023-02-26T14:12:01.040Z,1.20
2023-02-26T14:14:33.992Z,1.00
2023-02-26T14:17:09.463Z,0.80
2023-02-26T14:19:43.170Z,1.00
2023-02-26T14:22:31.052Z,0.73
2023-02-26T14:25:18.731Z,1.00
2023-02-26T14:27:47.236Z,0.90
2023-02-26T14:30:32.633Z,0.87
2023-02-26T14:33:05.858Z,1.10
2023-02-26T14:35:35.162Z,1.10
2023-02-26T14:38:33.984Z,0.90
2023-02-26T14:41:06.088Z,1.17
2023-02-26T14:43:48.323Z,0.80
2023-02-26T14:46:14.838Z,1.00
2023-02-26T14:48:41.756Z,1.00
2023-02-26T14:51:31.996Z,1.10
2023-02-26T14:54:46.690Z,1.00
2023-02-26T14:57:27.610Z,1.07
2023-02-26T15:00:12.705Z,0.90
2023-02-26T15:02:39.038Z,1.23
2023-02-26T15:05:22.459Z,1.20
2023-02-26T15:07:49.498Z,1.00
2023-02-26T15:10:31.267Z,0.90
2023-02-26T15:13:15.546Z,1.30
2023-02-26T15:15:53.227Z,1.53
2023-02-26T15:18:39.969Z,1.20
2023-02-26T15:21:15.609Z,1.10
2023-02-26T15:23:45.654Z,1.43
2023-02-26T15:26:25.264Z,1.13
2023-02-26T15:28:52.356Z,1.10
2023-02-26T15:31:21.123Z,1.37
2023-02-26T15:33:50.743Z,1.33
2023-02-26T15:36:25.565Z,1.17
2023-02-26T15:38:57.538Z,0.90
2023-02-26T15:41:25.846Z,1.23
2023-02-26T15:44:04.943Z,1.00
2023-02-26T15:46:40.268Z,1.20
2023-02-26T15:49:26.809Z,1.63
2023-02-26T15:51:53.486Z,1.10
2023-02-26T15:54:23.056Z,1.13
2023-02-26T15:56:49.719Z,1.30
2023-02-26T15:59:26.816Z,1.30
2023-02-26T16:01:55.289Z,1.10
2023-02-26T16:04:23.628Z,1.43
2023-02-26T16:06:54.937Z,1.27
2023-02-26T16:09:29.598Z,1.20
2023-02-26T16:11:58.518Z,1.10
2023-02-26T16:14:28.376Z,1.73
2023-02-26T16:16:56.138Z,1.30
2023-02-26T16:19:41.464Z,1.20
2023-02-26T16:22:21.314Z,1.50
2023-02-26T16:24:53.509Z,1.20
2023-02-26T16:27:21.085Z,1.50
2023-02-26T16:29:52.004Z,1.43
2023-02-26T16:32:18.800Z,1.60
2023-02-26T16:34:54.860Z,1.43
2023-02-26T16:37:33.291Z,1.30
2023-02-26T16:40:28.852Z,1.20
2023-02-26T16:43:06.711Z,1.10
2023-02-26T16:45:36.505Z,1.37
2023-02-26T16:48:16.461Z,1.40
2023-02-26T16:50:43.582Z,1.37
2023-02-26T16:53:14.732Z,1.50
2023-02-26T16:55:43.257Z,1.50
2023-02-26T16:58:14.576Z,1.50
2023-02-26T17:00:44.756Z,1.70
2023-02-26T17:03:17.521Z,1.53
2023-02-26T17:06:02.119Z,1.50
2023-02-26T17:08:36.474Z,1.80
2023-02-26T17:11:07.067Z,2.17
2023-02-26T17:13:34.654Z,1.50
2023-02-26T17:16:02.767Z,1.50
2023-02-26T17:18:30.694Z,1.37
2023-02-26T17:20:58.332Z,1.60
2023-02-26T17:23:29.559Z,1.63
2023-02-26T17:25:56.462Z,1.50
2023-02-26T17:28:26.177Z,1.70
2023-02-26T17:30:53.016Z,1.50
2023-02-26T17:33:20.165Z,1.83
2023-02-26T17:35:47.009Z,1.47
2023-02-26T17:38:15.510Z,1.50
2023-02-26T17:40:44.000Z,1.40
2023-02-26T17:43:10.602Z,1.80
2023-02-26T17:45:39.114Z,1.80
2023-02-26T17:48:06.319Z,1.73
2023-02-26T17:50:48.598Z,2.13
2023-02-26T17:53:16.793Z,2.10
2023-02-26T17:55:44.879Z,1.73
2023-02-26T17:58:28.696Z,1.40
2023-02-26T18:00:55.576Z,1.67
2023-02-26T18:03:22.505Z,1.87
2023-02-26T18:05:49.940Z,1.60
2023-02-26T18:08:25.927Z,1.60
2023-02-26T18:10:52.957Z,1.50
2023-02-26T18:13:19.896Z,1.90
2023-02-26T18:15:49.122Z,1.90
2023-02-26T18:18:16.480Z,1.60
2023-02-26T18:20:44.114Z,2.07
2023-02-26T18:23:13.645Z,1.90
2023-02-26T18:25:41.108Z,1.73
2023-02-26T18:28:13.209Z,1.90
2023-02-26T18:30:41.536Z,2.07
2023-02-26T18:33:08.339Z,1.60
2023-02-26T18:35:34.812Z,1.70
2023-02-26T18:38:02.557Z,1.50
2023-02-26T18:40:29.131Z,1.73
2023-02-26T18:42:55.913Z,2.07
2023-02-26T18:45:22.289Z,1.60
2023-02-26T18:47:48.804Z,1.93
2023-02-26T18:50:17.555Z,2.23
2023-02-26T18:52:44.809Z,2.17
2023-02-26T18:55:12.333Z,2.10
2023-02-26T18:57:40.238Z,1.67
2023-02-26T19:00:14.624Z,2.00
2023-02-26T19:02:46.972Z,1.90
2023-02-26T19:05:13.957Z,2.30
2023-02-26T19:07:41.302Z,2.53
2023-02-26T19:10:11.053Z,2.90
2023-02-26T19:12:37.439Z,2.70
2023-02-26T19:15:04.581Z,2.80
2023-02-26T19:17:30.971Z,3.10
2023-02-26T19:19:58.140Z,2.60
2023-02-26T19:22:24.550Z,2.47
2023-02-26T19:24:53.179Z,2.60
2023-02-26T19:27:19.642Z,2.40
2023-02-26T19:29:46.729Z,2.40
2023-02-26T19:32:13.273Z,2.63
2023-02-26T19:34:39.770Z,2.70
2023-02-26T19:37:06.158Z,2.50
2023-02-26T19:39:34.651Z,2.03
2023-02-26T19:42:01.092Z,2.20
2023-02-26T19:44:28.031Z,2.47
2023-02-26T19:46:55.212Z,2.30
2023-02-26T19:49:23.033Z,2.57
2023-02-26T19:51:50.931Z,2.10
2023-02-26T19:54:17.690Z,2.80
2023-02-26T19:56:44.567Z,2.57
2023-02-26T19:59:12.316Z,2.80
2023-02-26T20:01:41.678Z,2.83
2023-02-26T20:04:10.455Z,3.00
2023-02-26T20:06:36.963Z,3.30
2023-02-26T20:09:04.098Z,3.17
2023-02-26T20:11:30.495Z,3.30
2023-02-26T20:13:57.152Z,3.10
2023-02-26T20:16:23.628Z,2.80
2023-02-26T20:18:50.288Z,3.10
2023-02-26T20:21:16.672Z,2.70
2023-02-26T20:23:43.080Z,2.33
2023-02-26T20:26:12.428Z,3.00
2023-02-26T20:28:39.644Z,2.50
2023-02-26T20:31:08.025Z,3.00
2023-02-26T20:33:36.140Z,3.30
2023-02-26T20:36:03.053Z,3.07
2023-02-26T20:38:29.602Z,3.10
2023-02-26T20:40:56.697Z,3.27
2023-02-26T20:43:24.921Z,3.33
2023-02-26T20:45:52.002Z,3.20
2023-02-26T20:48:18.397Z,5.40
2023-02-26T20:50:44.838Z,3.60
2023-02-26T20:53:11.558Z,3.37
2023-02-26T20:55:38.174Z,2.73
2023-02-26T20:58:04.950Z,2.80
2023-02-26T21:00:31.559Z,3.23
2023-02-26T21:02:58.326Z,4.00
2023-02-26T21:05:24.906Z,4.17
2023-02-26T21:07:51.363Z,4.10
2023-02-26T21:10:19.214Z,2.90
2023-02-26T21:12:45.768Z,2.57
2023-02-26T21:15:12.879Z,3.17
2023-02-26T21:17:40.652Z,3.47
2023-02-26T21:20:08.738Z,3.10
2023-02-26T21:22:38.050Z,3.30
2023-02-26T21:25:06.443Z,3.30
2023-02-26T21:27:35.262Z,3.60
2023-02-26T21:30:02.085Z,3.13
2023-02-26T21:32:28.559Z,3.40
2023-02-26T21:34:55.645Z,3.60
2023-02-26T21:37:22.083Z,3.80
2023-02-26T21:39:48.455Z,3.30
2023-02-26T21:42:15.483Z,3.30
2023-02-26T21:44:41.971Z,3.43
2023-02-26T21:47:08.663Z,3.63
2023-02-26T21:49:35.325Z,3.60
2023-02-26T21:52:04.217Z,3.60
2023-02-26T21:54:30.672Z,3.90
2023-02-26T21:56:57.491Z,3.60
2023-02-26T21:59:24.019Z,3.70
2023-02-26T22:01:51.319Z,4.50
2023-02-26T22:04:18.606Z,3.80
2023-02-26T22:06:45.252Z,4.03
2023-02-26T22:09:12.215Z,3.67
2023-02-26T22:11:38.637Z,4.33
2023-02-26T22:14:05.115Z,3.87
2023-02-26T22:16:31.689Z,3.70
2023-02-26T22:18:58.119Z,3.77
2023-02-26T22:21:24.714Z,3.60
2023-02-26T22:23:51.204Z,3.40
2023-02-26T22:26:17.858Z,3.37
2023-02-26T22:28:44.286Z,3.50
2023-02-26T22:31:10.773Z,3.27
2023-02-26T22:33:37.223Z,3.70
2023-02-26T22:36:03.783Z,3.33
2023-02-26T22:38:30.272Z,3.60
2023-02-26T22:40:56.692Z,3.70
2023-02-26T22:43:23.092Z,2.97
2023-02-26T22:45:50.333Z,3.87
2023-02-26T22:48:17.909Z,3.67
2023-02-26T22:50:44.335Z,3.93
2023-02-26T22:53:10.780Z,3.77
2023-02-26T22:55:37.202Z,3.90
2023-02-26T22:58:04.770Z,3.77
2023-02-26T23:00:31.153Z,3.67
2023-02-26T23:02:57.574Z,3.47
2023-02-26T23:05:24.110Z,3.23
2023-02-26T23:07:50.587Z,4.33
2023-02-26T23:10:19.008Z,3.40
2023-02-26T23:12:46.752Z,3.70
2023-02-26T23:15:14.106Z,3.33
2023-02-26T23:17:41.337Z,3.13
2023-02-26T23:20:13.674Z,3.50
2023-02-26T23:22:41.323Z,3.37
2023-02-26T23:25:08.200Z,3.40
2023-02-26T23:27:34.644Z,3.33
2023-02-26T23:30:01.758Z,3.77
2023-02-26T23:32:28.256Z,3.50
2023-02-26T23:34:54.677Z,3.80
2023-02-26T23:37:21.076Z,3.87
2023-02-26T23:39:49.270Z,3.50
2023-02-26T23:42:15.804Z,3.43
2023-02-26T23:44:42.198Z,3.50
2023-02-26T23:47:08.863Z,3.53
2023-02-26T23:49:35.283Z,3.73
2023-02-26T23:52:01.730Z,3.50
2023-02-26T23:54:28.229Z,3.57
2023-02-26T23:56:54.616Z,3.77
2023-02-26T23:59:21.340Z,3.53
